Allakaket, Alaska
Current Conditions -  °F | °C
As of 8:53 AM on Thursday 27 Nov 2014 (Local Time) from PABT Reporting Station
Overcast Overcast  
Wind Chill: -10°   Ceiling: 18000
Heat Index: -10°   Visibility: 10mi
Dew Point: -16°   Wind: 0mph
Humidity: 74%   Direction: NA
Pressure: 30.45"   Gusts: NA
Location:  66.57°N, 152.65°W
Report Text: PABT 271753Z 00000KT 10SM FEW120 OVC180 M23/M27 A3045 RMK AO2 SLP341 OVC IS PR THIN 4/006 T12331267 11233 21294 56010
Loading
Personal Weather Stations






























Interactive Weather Map New forecast layout! Learn more

10-Day Weather Forecast

Advertisements
Track Severe Weather on mobile